Time;durP1;ratioP1;P1;durP2;ratioP2;P2;SDS_P1;SDS_P2;PMS_P1;PMS_P2;Temp;Humidity;BMP_temperature;BMP_pressure;BME280_temperature;BME280_humidity;BME280_pressure;Samples;Min_cycle;Max_cycle;Signal;HPM_P1;HPM_P2
2022/08/11 00:00:40;;;;;;;4.33;4.00;;;;;;;17.00;100.00;99611.30;1717586;83;21041;-79
2022/08/11 00:03:07;;;;;;;4.37;3.55;;;;;;;17.01;100.00;99614.78;1717125;83;21506;-79
2022/08/11 00:05:51;;;;;;;5.87;3.85;;;;;;;17.01;100.00;99618.72;1717215;83;21959;-79
2022/08/11 00:08:28;;;;;;;5.45;3.55;;;;;;;17.03;100.00;99610.27;1726790;82;21483;-79
2022/08/11 00:11:04;;;;;;;3.47;3.22;;;;;;;17.04;100.00;99614.58;1747573;81;21046;-79
2022/08/11 00:13:45;;;;;;;6.20;3.47;;;;;;;17.04;100.00;99618.05;1746591;82;20965;-79
2022/08/11 00:16:16;;;;;;;5.90;3.10;;;;;;;17.03;100.00;99609.80;1747137;82;20951;-79
2022/08/11 00:18:48;;;;;;;3.72;3.33;;;;;;;17.03;100.00;99608.95;1747173;82;21815;-79
2022/08/11 00:21:15;;;;;;;3.83;3.47;;;;;;;17.02;100.00;99602.85;1662760;85;21023;-79
2022/08/11 00:23:45;;;;;;;3.58;3.10;;;;;;;16.96;100.00;99596.71;1744180;82;21471;-79
2022/08/11 00:26:13;;;;;;;4.35;2.90;;;;;;;16.91;100.00;99600.10;1747701;82;20963;-79
2022/08/11 00:28:40;;;;;;;3.58;2.80;;;;;;;16.86;100.00;99606.12;1747371;82;21010;-79
2022/08/11 00:31:10;;;;;;;7.92;3.30;;;;;;;16.82;100.00;99604.63;1746784;82;22029;-78
2022/08/11 00:33:42;;;;;;;4.47;3.40;;;;;;;16.78;100.00;99602.69;1747073;82;20945;-79
2022/08/11 00:36:12;;;;;;;2.98;2.77;;;;;;;16.75;100.00;99598.95;1747685;82;20995;-79
2022/08/11 00:38:41;;;;;;;3.72;3.00;;;;;;;16.72;100.00;99596.52;1747473;82;20979;-78
2022/08/11 00:41:16;;;;;;;4.00;3.70;;;;;;;16.69;100.00;99584.05;1746967;82;21534;-79
2022/08/11 00:43:55;;;;;;;3.50;3.20;;;;;;;16.65;100.00;99596.53;1660833;85;21337;-79
2022/08/11 00:46:30;;;;;;;3.90;3.25;;;;;;;16.65;100.00;99596.53;1746749;82;20955;-79
2022/08/11 00:49:24;;;;;;;5.53;3.10;;;;;;;16.64;100.00;99592.22;1625109;85;21010;-78
2022/08/11 00:52:14;;;;;;;4.20;3.40;;;;;;;16.65;100.00;99594.38;1747170;82;20987;-78
2022/08/11 00:55:13;;;;;;;6.97;3.42;;;;;;;16.64;100.00;99603.19;1747788;82;20982;-78
2022/08/11 00:57:57;;;;;;;3.98;3.52;;;;;;;16.63;100.00;99605.41;1747607;82;21158;-78
2022/08/11 01:00:24;;;;;;;7.22;3.40;;;;;;;16.61;100.00;99600.25;1659680;85;21465;-79
2022/08/11 01:03:29;;;;;;;5.42;3.65;;;;;;;16.62;100.00;99603.25;1745513;82;20999;-79
2022/08/11 01:06:23;;;;;;;6.30;4.12;;;;;;;16.61;100.00;99602.88;1659585;85;21063;-78
2022/08/11 01:09:02;;;;;;;;;;;;;;;16.61;100.00;99602.03;1715006;82;21585;-78
2022/08/11 01:12:00;;;;;;;5.58;3.87;;;;;;;16.58;100.00;99597.85;1746024;82;21055;-79
2022/08/11 01:14:35;;;;;;;4.10;3.70;;;;;;;16.57;100.00;99591.38;1625494;88;21577;-79
2022/08/11 01:17:34;;;;;;;4.70;4.20;;;;;;;16.56;100.00;99593.16;1746224;82;20990;-78
2022/08/11 01:20:49;;;;;;;5.42;3.50;;;;;;;16.56;100.00;99601.04;1658332;85;21161;-78
2022/08/11 01:23:48;;;;;;;4.10;3.80;;;;;;;16.57;100.00;99611.08;1651263;86;21046;-78
2022/08/11 01:26:46;;;;;;;5.90;3.70;;;;;;;16.58;100.00;99599.63;1650344;87;21255;-79
2022/08/11 01:29:41;;;;;;;5.33;3.75;;;;;;;16.61;100.00;99598.94;1745032;82;21391;-79
2022/08/11 01:32:31;;;;;;;5.15;4.12;;;;;;;16.64;100.00;99600.09;1747194;82;21047;-79
2022/08/11 01:35:42;;;;;;;5.03;4.53;;;;;;;16.64;100.00;99592.22;1747067;82;21050;-79
2022/08/11 01:38:36;;;;;;;6.17;4.05;;;;;;;16.67;100.00;99582.83;1747258;82;21006;-79
2022/08/11 01:41:14;;;;;;;6.80;3.83;;;;;;;16.65;100.00;99580.77;1746271;82;21144;-79
2022/08/11 01:47:49;;;;;;;4.95;4.45;;;;;;;16.64;100.00;99568.58;1747150;82;21439;-79
2022/08/11 01:49:57;;;;;;;9.78;4.30;;;;;;;16.61;100.00;99563.95;1743669;82;21439;-79
2022/08/11 01:52:31;;;;;;;4.90;4.20;;;;;;;16.59;100.00;99565.84;1747128;82;20995;-78
2022/08/11 01:55:29;;;;;;;4.72;4.20;;;;;;;16.56;100.00;99564.28;1747408;82;21130;-78
2022/08/11 01:58:14;;;;;;;4.20;3.85;;;;;;;16.54;100.00;99561.75;1662246;85;21558;-78
2022/08/11 02:00:49;;;;;;;4.37;3.98;;;;;;;16.53;100.00;99558.75;1745976;82;20963;-78
2022/08/11 02:03:29;;;;;;;5.20;3.70;;;;;;;16.54;100.00;99563.53;1743868;82;21022;-79
2022/08/11 02:11:29;;;;;;;5.08;3.80;;;;;;;16.49;100.00;99557.26;1740072;82;21147;-79
2022/08/11 02:12:52;;;;;;;6.33;4.03;;;;;;;16.46;100.00;99554.83;1724641;83;20996;-78
2022/08/11 02:15:45;;;;;;;4.10;3.70;;;;;;;16.41;100.00;99558.67;1728581;82;21011;-78
2022/08/11 02:23:38;;;;;;;8.43;3.80;;;;;;;16.39;100.00;99565.80;1727430;82;21019;-78
2022/08/11 02:23:58;;;;;;;4.87;4.42;;;;;;;16.31;100.00;99568.94;1728468;83;21798;-79
2022/08/11 02:26:35;;;;;;;6.17;4.53;;;;;;;16.33;100.00;99575.41;1726809;82;21043;-79
2022/08/11 02:29:19;;;;;;;4.33;3.95;;;;;;;16.34;100.00;99572.69;1728652;82;20944;-79
2022/08/11 02:35:19;;;;;;;5.12;4.12;;;;;;;16.39;100.00;99573.68;1728549;83;21436;-79
2022/08/11 02:38:06;;;;;;;5.28;3.95;;;;;;;16.40;100.00;99566.18;1729038;82;21104;-79
2022/08/11 02:40:39;;;;;;;6.50;3.45;;;;;;;16.41;100.00;99560.83;1656209;86;21185;-79
2022/08/11 02:43:31;;;;;;;5.35;4.15;;;;;;;16.42;100.00;99557.27;1728872;82;21495;-79
2022/08/11 02:46:09;;;;;;;3.87;3.60;;;;;;;16.44;100.00;99564.58;1728459;83;21011;-79
2022/08/11 02:52:08;;;;;;;4.95;4.12;;;;;;;16.49;100.00;99569.08;1728552;82;21628;-79
2022/08/11 02:55:14;;;;;;;4.25;3.85;;;;;;;16.50;100.00;99569.92;1728913;82;21527;-79
2022/08/11 02:57:52;;;;;;;4.33;3.92;;;;;;;16.50;100.00;99564.66;1665321;85;21499;-79
2022/08/11 03:00:19;;;;;;;5.00;4.10;;;;;;;16.53;100.00;99563.16;1728973;83;20988;-79
2022/08/11 03:03:08;;;;;;;4.40;4.00;;;;;;;16.52;100.00;99565.41;1728615;82;21022;-79
2022/08/11 03:05:57;;;;;;;4.53;4.00;;;;;;;16.52;100.00;99561.47;1728421;82;21639;-79
2022/08/11 03:08:51;;;;;;;4.22;3.83;;;;;;;16.52;100.00;99564.94;1728702;82;21421;-79
2022/08/11 03:17:44;;;;;;;5.50;4.17;;;;;;;16.56;100.00;99555.56;1728834;83;21018;-78
2022/08/11 03:20:43;;;;;;;6.65;3.90;;;;;;;16.58;100.00;99547.96;1711840;83;21240;-78
2022/08/11 03:23:46;;;;;;;7.42;4.00;;;;;;;16.60;100.00;99551.30;1728849;82;20948;-79
2022/08/11 03:26:27;;;;;;;5.28;4.75;;;;;;;16.63;100.00;99548.52;1665240;86;21008;-79
2022/08/11 03:29:34;;;;;;;5.03;3.90;;;;;;;16.67;100.00;99550.00;1728660;83;20980;-79
2022/08/11 03:32:22;;;;;;;4.10;3.60;;;;;;;16.72;100.00;99552.34;1728812;82;20964;-78
2022/08/11 03:34:49;;;;;;;5.25;4.08;;;;;;;16.79;100.00;99554.44;1728810;82;21154;-78
2022/08/11 03:37:49;;;;;;;4.28;3.87;;;;;;;17.01;100.00;99540.73;1665033;85;21040;-78
2022/08/11 03:43:57;;;;;;;4.60;4.15;;;;;;;17.64;100.00;99531.20;1728192;82;21094;-78
2022/08/11 03:46:52;;;;;;;4.12;3.83;;;;;;;17.98;100.00;99529.73;1631155;85;20975;-78
2022/08/11 03:49:51;;;;;;;3.85;3.55;;;;;;;18.39;100.00;99529.36;1729045;83;21119;-78
2022/08/11 03:52:52;;;;;;;4.10;3.80;;;;;;;18.76;100.00;99524.93;1728735;82;21499;-78
2022/08/11 03:55:42;;;;;;;4.15;3.75;;;;;;;19.11;100.00;99520.48;1729124;82;21007;-77
2022/08/11 03:58:39;;;;;;;4.97;3.95;;;;;;;19.48;99.14;99524.26;1729210;82;20972;-78
2022/08/11 04:01:39;;;;;;;4.75;4.20;;;;;;;19.79;96.43;99525.37;1729115;82;21487;-78
2022/08/11 04:04:54;;;;;;;4.30;3.90;;;;;;;20.02;93.59;99518.27;1728407;82;21090;-78
2022/08/11 04:07:55;;;;;;;6.05;4.37;;;;;;;20.05;92.87;99518.88;1727818;83;20960;-77
2022/08/11 04:10:48;;;;;;;4.53;3.98;;;;;;;20.03;91.08;99516.83;1659033;83;21006;-76
2022/08/11 04:15:58;;;;;;;4.42;4.03;;;;;;;20.11;91.28;99512.27;1717152;83;21053;-79
2022/08/11 04:17:06;;;;;;;5.40;3.92;;;;;;;20.18;90.96;99510.83;1713643;83;21113;-77
2022/08/11 04:19:49;;;;;;;4.95;4.45;;;;;;;20.01;90.71;99515.27;1716828;83;21107;-77
2022/08/11 04:22:24;;;;;;;4.87;4.58;;;;;;;19.70;91.96;99527.42;1717522;83;21518;-78
2022/08/11 04:25:17;;;;;;;5.05;4.03;;;;;;;19.50;93.19;99511.83;1715229;83;21081;-78
2022/08/11 04:28:13;;;;;;;;;;;;;;;19.61;94.21;99512.66;1719182;83;21006;-78
2022/08/11 04:30:55;;;;;;;4.30;3.87;;;;;;;20.03;91.95;99519.47;1717040;83;20137;-78
2022/08/11 04:33:42;;;;;;;4.28;3.87;;;;;;;20.44;90.59;99509.57;1715992;83;21294;-78
2022/08/11 04:39:59;;;;;;;5.17;4.12;;;;;;;20.75;87.15;99522.45;1717539;83;21127;-78
2022/08/11 04:46:00;;;;;;;4.50;4.10;;;;;;;20.28;89.49;99526.28;1717299;83;21026;-78
2022/08/11 05:02:01;;;;;;;4.62;4.15;;;;;;;21.22;84.47;99527.75;1704665;82;21536;-77
2022/08/11 05:08:08;;;;;;;10.68;4.10;;;;;;;21.90;80.18;99532.06;1692950;84;21585;-79
2022/08/11 05:11:08;;;;;;;3.83;3.52;;;;;;;22.22;77.76;99520.82;1722643;82;21198;-77
2022/08/11 05:36:52;;;;;;;14.33;4.75;;;;;;;21.66;78.68;99520.47;1766471;81;21161;-78
2022/08/11 05:56:20;;;;;;;6.50;3.98;;;;;;;20.68;86.30;99532.31;1765498;80;37705;-80
2022/08/11 05:58:52;;;;;;;3.70;3.40;;;;;;;20.69;86.62;99535.31;1788768;80;21006;-80
2022/08/11 06:01:26;;;;;;;5.15;3.33;;;;;;;20.77;86.22;99542.98;1712443;82;21752;-81
2022/08/11 06:04:13;;;;;;;6.42;3.12;;;;;;;20.85;84.20;99547.14;1773864;80;21077;-80
2022/08/11 06:07:00;;;;;;;4.00;3.30;;;;;;;20.92;84.26;99544.84;1748261;81;20957;-78
2022/08/11 06:09:41;;;;;;;3.52;3.20;;;;;;;20.90;84.10;99533.55;1759596;79;21082;-80
2022/08/11 06:12:21;;;;;;;3.08;2.87;;;;;;;20.80;83.48;99529.97;1769108;79;21122;-80
2022/08/11 06:14:51;;;;;;;3.17;2.87;;;;;;;20.63;84.61;99532.69;1721897;82;21227;-79
2022/08/11 06:17:26;;;;;;;5.37;4.08;;;;;;;20.49;86.19;99525.06;1789032;79;21043;-80
2022/08/11 06:20:03;;;;;;;3.70;3.45;;;;;;;20.37;86.15;99532.19;1774844;79;21094;-78
2022/08/11 06:22:29;;;;;;;5.10;3.85;;;;;;;20.24;86.47;99531.44;1778484;80;21048;-78
2022/08/11 06:25:00;;;;;;;3.72;3.40;;;;;;;20.12;87.62;99522.72;1713982;83;21099;-79
2022/08/11 06:27:30;;;;;;;4.12;3.83;;;;;;;20.02;87.90;99528.36;1782233;80;21082;-81
2022/08/11 06:29:57;;;;;;;3.95;3.58;;;;;;;19.92;88.67;99519.50;1781784;79;21085;-81
2022/08/11 06:32:30;;;;;;;3.65;3.40;;;;;;;19.79;89.54;99524.89;1769218;81;20992;-81
2022/08/11 06:35:17;;;;;;;;;;;;;;;19.70;90.37;99521.67;1773066;79;20994;-80
2022/08/11 06:38:11;;;;;;;4.10;3.72;;;;;;;19.63;91.21;99522.25;1770887;79;20168;-80
2022/08/11 06:44:04;;;;;;;5.35;4.08;;;;;;;19.38;92.88;99514.91;1705772;83;21109;-79
2022/08/11 06:46:38;;;;;;;;;;;;;;;19.27;93.60;99519.67;1790846;80;21167;-79
2022/08/11 06:51:10;;;;;;;4.62;4.12;;;;;;;19.12;96.57;99544.58;1787519;80;20176;-80
2022/08/11 06:51:39;;;;;;;4.92;4.17;;;;;;;19.12;96.57;99544.58;1689468;83;21395;-78
2022/08/11 06:54:10;;;;;;;4.08;3.60;;;;;;;19.09;96.31;99551.39;1763293;79;21094;-79
2022/08/11 07:02:27;;;;;;;4.80;4.30;;;;;;;19.01;97.65;99540.57;1787106;80;20983;-81
2022/08/11 07:05:20;;;;;;;6.28;4.28;;;;;;;18.96;98.18;99548.48;1772100;80;21087;-80
2022/08/11 07:16:51;;;;;;;4.35;4.05;;;;;;;18.81;99.83;99550.44;1770233;80;21043;-80
2022/08/11 07:31:12;;;;;;;5.90;3.90;;;;;;;18.75;100.00;99560.98;1786372;80;21034;-80
2022/08/11 07:33:48;;;;;;;4.87;4.40;;;;;;;18.78;100.00;99566.50;1767937;80;21078;-79
2022/08/11 07:36:16;;;;;;;6.28;4.03;;;;;;;18.77;100.00;99561.70;1708218;83;21184;-79
2022/08/11 07:38:49;;;;;;;5.03;4.37;;;;;;;18.80;100.00;99565.41;1787238;80;21007;-80
2022/08/11 07:41:21;;;;;;;4.00;3.70;;;;;;;18.86;100.00;99578.62;1786959;80;21011;-80
2022/08/11 07:43:51;;;;;;;4.47;3.92;;;;;;;18.88;100.00;99580.19;1782964;79;21654;-80
2022/08/11 07:54:34;;;;;;;5.55;4.55;;;;;;;18.92;100.00;99583.44;1708365;83;21167;-79
2022/08/11 08:19:16;;;;;;;6.72;6.10;;;;;;;18.44;100.00;99641.33;1756559;79;21049;-80
2022/08/11 08:21:43;;;;;;;4.87;4.47;;;;;;;18.42;100.00;99635.33;1771685;79;21106;-81
2022/08/11 08:24:11;;;;;;;10.10;6.08;;;;;;;18.41;100.00;99628.85;1707282;83;21065;-80
2022/08/11 08:32:10;;;;;;;7.47;4.75;;;;;;;18.46;100.00;99635.48;1721452;83;20946;-81
2022/08/11 08:34:36;;;;;;;6.20;5.67;;;;;;;18.49;100.00;99644.48;1718723;83;22214;-80
2022/08/11 08:37:04;;;;;;;7.78;6.00;;;;;;;18.48;100.00;99641.96;1787556;80;21074;-81
2022/08/11 08:39:36;;;;;;;5.80;4.83;;;;;;;18.49;100.00;99645.80;1787383;80;21057;-82
2022/08/11 08:42:11;;;;;;;6.70;5.05;;;;;;;18.52;100.00;99633.73;1753186;79;22167;-81
2022/08/11 08:44:45;;;;;;;7.40;6.62;;;;;;;18.56;100.00;99637.84;1747627;79;21018;-81
2022/08/11 08:47:14;;;;;;;9.20;5.20;;;;;;;18.61;100.00;99630.09;1695123;83;21638;-82
2022/08/11 08:49:49;;;;;;;6.00;5.40;;;;;;;18.66;100.00;99619.59;1722798;83;21051;-81
2022/08/11 08:52:23;;;;;;;5.78;5.12;;;;;;;18.71;100.00;99617.95;1778253;80;21966;-81
2022/08/11 08:54:55;;;;;;;5.75;5.25;;;;;;;18.78;100.00;99609.50;1767145;80;21120;-78
2022/08/11 08:57:22;;;;;;;5.90;5.28;;;;;;;18.85;100.00;99599.33;1740872;80;20977;-79
2022/08/11 08:59:50;;;;;;;5.60;5.10;;;;;;;18.90;100.00;99604.64;1770685;79;21027;-77
2022/08/11 09:02:19;;;;;;;5.80;5.40;;;;;;;18.98;100.00;99590.91;1776007;79;21020;-76
2022/08/11 09:04:48;;;;;;;5.28;4.87;;;;;;;19.02;100.00;99585.75;1743966;79;21035;-77
2022/08/11 09:07:20;;;;;;;7.45;5.28;;;;;;;19.08;100.00;99580.50;1767500;79;21232;-76
2022/08/11 09:09:49;;;;;;;5.45;4.92;;;;;;;19.13;100.00;99574.41;1776129;79;21235;-78
2022/08/11 09:12:18;;;;;;;5.00;4.58;;;;;;;19.21;100.00;99572.87;1700275;83;21714;-79
2022/08/11 09:15:00;;;;;;;5.37;4.90;;;;;;;19.28;100.00;99567.50;1779861;79;21069;-79
2022/08/11 09:17:32;;;;;;;6.15;5.65;;;;;;;19.31;100.00;99564.28;1788075;80;21010;-77
2022/08/11 09:20:04;;;;;;;5.50;5.00;;;;;;;19.29;100.00;99557.80;1788614;79;21138;-78
2022/08/11 09:28:04;;;;;;;5.28;4.78;;;;;;;19.16;100.00;99555.26;1781800;79;20980;-80
2022/08/11 09:30:31;;;;;;;5.37;4.97;;;;;;;19.13;100.00;99553.33;1753954;79;21043;-79
2022/08/11 09:33:01;;;;;;;5.10;4.80;;;;;;;19.11;100.00;99554.76;1695231;83;21251;-79
2022/08/11 09:35:32;;;;;;;5.90;5.40;;;;;;;19.09;100.00;99559.30;1760228;79;21042;-79
2022/08/11 09:40:47;;;;;;;6.78;4.83;;;;;;;19.12;100.00;99559.08;1786229;79;21612;-79
2022/08/11 09:46:01;;;;;;;6.20;5.05;;;;;;;19.29;100.00;99570.98;1762246;81;21127;-79
2022/08/11 09:48:30;;;;;;;5.20;4.80;;;;;;;19.50;100.00;99570.70;1762241;80;21031;-78
2022/08/11 09:50:59;;;;;;;4.97;4.20;;;;;;;19.72;100.00;99561.97;1763377;81;21543;-77
2022/08/11 09:53:30;;;;;;;4.85;4.33;;;;;;;19.91;100.00;99560.05;1763317;80;21074;-78
2022/08/11 09:55:57;;;;;;;4.70;4.33;;;;;;;20.16;100.00;99560.28;1762305;81;21040;-79
2022/08/11 09:58:26;;;;;;;4.75;4.35;;;;;;;20.30;99.24;99556.89;1756127;79;22163;-78
2022/08/11 10:00:52;;;;;;;6.10;4.28;;;;;;;20.42;99.93;99546.32;1754046;80;21393;-77
2022/08/11 10:03:25;;;;;;;4.65;4.25;;;;;;;20.54;98.37;99529.49;1723864;82;21652;-77
2022/08/11 10:08:50;;;;;;;5.03;4.67;;;;;;;20.51;95.40;99533.70;1691795;83;21030;-79
2022/08/11 10:11:20;;;;;;;5.03;4.62;;;;;;;20.44;94.24;99538.63;1757937;79;21849;-77
2022/08/11 10:16:34;;;;;;;5.20;4.80;;;;;;;20.22;96.13;99540.81;1683097;84;21200;-78
2022/08/11 10:19:02;;;;;;;5.05;4.65;;;;;;;20.25;96.36;99540.56;1717762;82;21573;-78
2022/08/11 10:21:39;;;;;;;6.30;5.70;;;;;;;20.41;96.44;99537.55;1725819;82;21015;-79
2022/08/11 10:27:02;;;;;;;5.45;4.95;;;;;;;20.60;95.02;99541.70;1705210;82;21954;-77
2022/08/11 10:35:13;;;;;;;6.97;5.37;;;;;;;20.82;93.94;99539.45;1722827;83;21047;-79
2022/08/11 10:37:41;;;;;;;5.53;5.12;;;;;;;20.84;93.44;99531.41;1702859;83;21623;-79
2022/08/11 10:40:10;;;;;;;6.95;5.83;;;;;;;20.88;93.71;99516.48;1723075;82;21031;-79
2022/08/11 10:48:07;;;;;;;6.72;6.22;;;;;;;21.01;93.36;99496.46;1645954;85;21612;-77
2022/08/11 10:58:55;;;;;;;10.95;6.85;;;;;;;20.85;90.47;99504.00;1725234;82;21199;-78
2022/08/11 11:01:30;;;;;;;6.40;5.80;;;;;;;20.77;91.57;99499.38;1724933;83;21019;-78
2022/08/11 11:04:01;;;;;;;7.30;6.70;;;;;;;20.81;92.73;99504.73;1726027;82;22113;-78
2022/08/11 11:07:12;;;;;;;7.15;6.55;;;;;;;20.82;91.14;99499.81;1724456;82;20997;-79
2022/08/11 11:09:43;;;;;;;6.37;5.75;;;;;;;20.83;92.20;99511.22;1720582;82;21096;-79
2022/08/11 11:18:18;;;;;;;7.22;6.60;;;;;;;20.83;91.47;99505.93;1750742;80;20982;-80
2022/08/11 11:20:56;;;;;;;7.05;6.40;;;;;;;20.81;91.42;99515.31;1756029;80;20971;-77
2022/08/11 11:23:39;;;;;;;8.33;7.62;;;;;;;20.88;92.78;99521.78;1740943;82;21051;-79
2022/08/11 11:26:37;;;;;;;7.08;6.55;;;;;;;21.01;91.29;99522.06;1731336;80;21181;-80
2022/08/11 11:29:23;;;;;;;9.03;7.53;;;;;;;21.17;91.35;99528.61;1749449;80;21023;-78
2022/08/11 11:32:02;;;;;;;7.40;6.80;;;;;;;21.34;88.11;99525.88;1755734;80;21647;-77
2022/08/11 11:34:54;;;;;;;9.70;8.90;;;;;;;21.46;89.69;99526.63;1773543;80;21646;-78
2022/08/11 11:37:24;;;;;;;7.55;6.83;;;;;;;21.69;88.79;99535.25;1754981;80;21002;-78
2022/08/11 11:39:53;;;;;;;13.95;12.35;;;;;;;21.80;86.69;99532.02;1787222;79;21105;-79
2022/08/11 11:42:19;;;;;;;14.05;10.90;;;;;;;21.73;85.98;99534.02;1759306;80;21208;-77
2022/08/11 11:44:46;;;;;;;7.62;7.03;;;;;;;21.51;87.36;99541.16;1757791;80;21144;-77
2022/08/11 11:47:13;;;;;;;7.30;6.60;;;;;;;21.29;88.83;99548.75;1778846;80;21509;-77
2022/08/11 11:49:42;;;;;;;8.43;7.20;;;;;;;21.07;90.13;99547.52;1758630;80;21091;-77
2022/08/11 11:52:18;;;;;;;7.30;6.70;;;;;;;20.85;91.30;99550.27;1773163;80;21598;-80
2022/08/11 11:54:49;;;;;;;7.35;6.67;;;;;;;20.61;93.18;99546.02;1787167;80;21034;-78
2022/08/11 12:03:00;;;;;;;10.63;9.63;;;;;;;20.41;95.73;99531.43;1787578;80;21026;-76
2022/08/11 12:05:27;;;;;;;8.30;7.60;;;;;;;20.44;96.14;99544.40;1722996;83;21060;-77
2022/08/11 12:10:47;;;;;;;9.63;7.30;;;;;;;20.50;95.84;99534.66;1724931;83;21989;-77
2022/08/11 12:16:02;;;;;;;7.87;7.28;;;;;;;20.50;95.69;99534.18;1721755;83;21074;-77
2022/08/11 12:18:33;;;;;;;7.20;6.70;;;;;;;20.55;95.72;99529.85;1722188;83;21010;-76
2022/08/11 12:21:01;;;;;;;8.88;8.18;;;;;;;20.62;96.04;99527.88;1722850;83;21035;-77
2022/08/11 12:29:00;;;;;;;8.00;6.85;;;;;;;21.12;94.59;99528.15;1722939;83;20992;-77
2022/08/11 12:31:30;;;;;;;7.17;6.47;;;;;;;21.32;93.49;99526.50;1722936;83;21011;-74
2022/08/11 12:34:06;;;;;;;8.55;7.83;;;;;;;21.40;92.50;99526.66;1723101;83;21016;-76
2022/08/11 12:36:38;;;;;;;8.23;7.50;;;;;;;21.43;92.32;99531.70;1722992;83;21838;-76
2022/08/11 12:39:17;;;;;;;7.53;6.87;;;;;;;21.49;92.25;99534.31;1723181;83;20976;-76
2022/08/11 12:47:17;;;;;;;9.08;8.18;;;;;;;21.49;90.68;99535.64;1706081;83;20951;-76
2022/08/11 12:52:43;;;;;;;8.73;7.95;;;;;;;21.50;91.78;99541.29;1723232;83;20924;-76
2022/08/11 12:55:12;;;;;;;7.87;7.17;;;;;;;21.51;91.66;99549.09;1791249;80;21176;-76
2022/08/11 13:06:02;;;;;;;9.83;7.35;;;;;;;21.53;91.61;99551.62;1722814;83;21071;-76
2022/08/11 13:08:34;;;;;;;8.93;8.03;;;;;;;21.65;91.28;99554.52;1722650;83;21028;-76
2022/08/11 13:13:48;;;;;;;9.20;8.38;;;;;;;21.88;89.43;99557.84;1790536;79;20999;-76
2022/08/11 13:16:16;;;;;;;7.53;7.00;;;;;;;21.96;89.80;99552.24;1790996;79;21217;-76
2022/08/11 13:18:42;;;;;;;9.00;7.72;;;;;;;22.02;89.74;99554.02;1790826;80;20936;-76
2022/08/11 13:21:10;;;;;;;9.90;7.95;;;;;;;22.06;89.09;99548.80;1768859;80;21011;-76
2022/08/11 13:23:37;;;;;;;8.30;7.60;;;;;;;22.08;89.28;99551.67;1723147;83;21531;-77
2022/08/11 13:26:04;;;;;;;7.97;7.22;;;;;;;22.11;89.22;99547.44;1789256;80;21058;-78
2022/08/11 13:28:31;;;;;;;8.25;7.33;;;;;;;22.09;88.97;99553.35;1789925;80;21463;-76
2022/08/11 13:31:13;;;;;;;7.75;7.03;;;;;;;22.02;88.46;99551.36;1790302;80;21012;-77
2022/08/11 13:33:48;;;;;;;7.97;7.05;;;;;;;21.88;89.42;99557.84;1790339;80;21080;-77
2022/08/11 13:36:18;;;;;;;9.68;7.75;;;;;;;21.76;90.44;99557.11;1789625;80;21007;-76
2022/08/11 13:38:45;;;;;;;8.30;7.60;;;;;;;21.69;91.04;99558.59;1790489;80;21013;-76
2022/08/11 13:43:56;;;;;;;10.70;7.53;;;;;;;21.52;92.13;99557.88;1790837;80;21027;-76
2022/08/11 13:46:23;;;;;;;8.70;7.25;;;;;;;21.47;92.96;99553.45;1791209;80;21412;-76
2022/08/11 13:48:52;;;;;;;8.30;7.60;;;;;;;21.43;93.48;99562.61;1790836;80;20983;-76
2022/08/11 13:51:32;;;;;;;7.92;6.80;;;;;;;21.40;93.78;99564.19;1724092;83;21058;-77
2022/08/11 13:54:08;;;;;;;7.05;6.53;;;;;;;21.39;94.04;99557.22;1790839;79;21460;-75
2022/08/11 13:56:38;;;;;;;9.95;6.75;;;;;;;21.40;94.19;99555.77;1707099;83;21033;-77
2022/08/11 13:59:07;;;;;;;7.40;6.67;;;;;;;21.44;94.19;99551.90;1742082;81;21094;-77
2022/08/11 14:01:43;;;;;;;8.33;7.62;;;;;;;21.44;94.16;99551.90;1732330;82;21627;-78
2022/08/11 14:04:25;;;;;;;7.08;6.47;;;;;;;21.42;93.82;99547.22;1742484;81;20968;-78
2022/08/11 14:06:53;;;;;;;7.47;6.40;;;;;;;21.43;94.08;99551.55;1744145;81;21106;-75
2022/08/11 14:09:24;;;;;;;5.87;5.37;;;;;;;21.51;93.96;99543.80;1744347;81;21434;-76
2022/08/11 14:14:36;;;;;;;14.90;8.25;;;;;;;21.60;93.60;99543.48;1724388;81;21574;-76
2022/08/11 14:17:07;;;;;;;7.08;6.45;;;;;;;21.59;93.87;99541.80;1718151;82;21071;-77
2022/08/11 14:19:41;;;;;;;6.55;5.95;;;;;;;21.59;93.85;99541.80;1718481;82;21632;-75
2022/08/11 14:22:07;;;;;;;;;;;;;;;21.57;94.12;99538.00;1721309;82;21082;-76
2022/08/11 14:24:41;;;;;;;7.22;5.97;;;;;;;21.59;94.35;99538.67;1718918;83;20151;-76
2022/08/11 14:27:10;;;;;;;7.87;6.80;;;;;;;21.57;94.22;99549.91;1718803;83;21052;-77
2022/08/11 14:29:38;;;;;;;7.10;6.50;;;;;;;21.55;94.60;99547.88;1718890;82;21060;-75
2022/08/11 14:32:10;;;;;;;6.35;5.90;;;;;;;21.54;95.41;99551.48;1706692;82;21123;-75
2022/08/11 14:34:42;;;;;;;6.85;6.25;;;;;;;21.54;95.64;99542.70;1718163;82;21017;-76
2022/08/11 14:37:15;;;;;;;7.42;6.83;;;;;;;21.49;96.51;99545.73;1719243;82;21562;-76
2022/08/11 14:39:45;;;;;;;8.18;7.03;;;;;;;21.45;97.02;99546.13;1717905;82;21040;-76
2022/08/11 14:47:55;;;;;;;6.87;6.28;;;;;;;21.27;99.23;99541.43;1718587;83;21001;-76
2022/08/11 14:50:24;;;;;;;7.50;6.87;;;;;;;21.23;99.58;99543.13;1718169;82;20992;-75
2022/08/11 14:52:55;;;;;;;8.15;7.37;;;;;;;21.18;100.00;99536.87;1718402;83;21004;-76
2022/08/11 14:58:10;;;;;;;7.42;6.80;;;;;;;21.16;100.00;99536.67;1719014;83;21265;-76
2022/08/11 15:00:37;;;;;;;7.65;6.58;;;;;;;21.15;100.00;99536.31;1719018;83;21012;-76
2022/08/11 15:03:10;;;;;;;7.33;6.62;;;;;;;21.14;100.00;99535.95;1718942;82;20953;-77
2022/08/11 15:05:55;;;;;;;7.08;6.37;;;;;;;21.15;100.00;99537.16;1719274;83;21023;-76
2022/08/11 15:08:53;;;;;;;8.73;6.72;;;;;;;21.16;100.00;99528.73;1718955;82;20949;-76
2022/08/11 15:10:54;;;;;;;6.80;6.30;;;;;;;21.13;100.00;99528.50;1717376;83;21226;-77
2022/08/11 15:13:21;;;;;;;7.83;6.83;;;;;;;21.09;100.00;99517.82;1725172;81;21731;-77
2022/08/11 15:18:33;;;;;;;7.22;6.40;;;;;;;20.97;100.00;99514.90;1764665;81;21047;-76
2022/08/11 15:37:35;;;;;;;6.47;5.75;;;;;;;20.52;100.00;99466.20;1747165;80;21764;-77
2022/08/11 15:46:43;;;;;;;8.53;6.00;;;;;;;20.32;100.00;99448.48;1764674;81;20941;-76
2022/08/11 15:49:15;;;;;;;8.40;6.22;;;;;;;20.27;100.00;99446.20;1763140;81;21041;-76
2022/08/11 15:51:47;;;;;;;6.87;6.17;;;;;;;20.24;100.00;99446.45;1764750;81;21225;-77
2022/08/11 15:54:17;;;;;;;7.53;6.07;;;;;;;20.23;100.00;99450.05;1765038;81;21060;-76
2022/08/11 15:56:47;;;;;;;7.55;6.95;;;;;;;20.23;100.00;99456.66;1743481;81;21407;-76
2022/08/11 16:04:45;;;;;;;7.28;6.55;;;;;;;20.23;100.00;99455.34;1764528;81;22095;-76
2022/08/11 16:07:15;;;;;;;7.12;6.42;;;;;;;20.23;100.00;99461.09;1764586;81;20981;-77
2022/08/11 16:10:18;;;;;;;7.30;6.70;;;;;;;20.24;100.00;99469.38;1764788;81;20985;-76
2022/08/11 16:18:41;;;;;;;6.75;5.83;;;;;;;20.37;100.00;99491.25;1764550;81;21257;-76
2022/08/11 16:21:16;;;;;;;6.00;5.60;;;;;;;20.41;100.00;99494.45;1764655;81;21472;-76
2022/08/11 16:23:45;;;;;;;7.87;7.17;;;;;;;20.45;100.00;99490.59;1764617;81;20988;-76
2022/08/11 16:26:16;;;;;;;6.53;5.95;;;;;;;20.48;100.00;99489.87;1764861;81;21390;-76
2022/08/11 16:28:43;;;;;;;6.53;6.08;;;;;;;20.52;100.00;99483.37;1764602;81;21078;-76
2022/08/11 16:31:10;;;;;;;7.62;6.00;;;;;;;20.54;100.00;99481.93;1764576;81;21536;-76
2022/08/11 16:33:39;;;;;;;7.55;6.67;;;;;;;20.53;100.00;99485.53;1764452;81;20988;-76
2022/08/11 16:38:54;;;;;;;8.95;6.22;;;;;;;20.51;100.00;99489.63;1764599;81;21016;-76
2022/08/11 16:47:01;;;;;;;7.33;6.78;;;;;;;20.32;100.00;99485.45;1764842;81;20988;-76
2022/08/11 16:49:41;;;;;;;14.18;10.45;;;;;;;20.25;100.00;99489.06;1764747;81;21485;-76
2022/08/11 16:52:10;;;;;;;11.70;10.50;;;;;;;20.17;100.00;99491.51;1764718;81;21552;-76
2022/08/11 16:54:37;;;;;;;9.63;8.30;;;;;;;20.12;100.00;99489.70;1764549;80;21051;-76
2022/08/11 17:00:05;;;;;;;7.40;6.70;;;;;;;20.04;100.00;99495.23;1764493;81;20980;-76
2022/08/11 17:14:00;;;;;;;7.17;6.67;;;;;;;19.88;100.00;99495.14;1764803;81;20996;-77
2022/08/11 17:16:34;;;;;;;7.70;7.00;;;;;;;19.86;100.00;99489.63;1764326;81;20997;-77
2022/08/11 17:19:11;;;;;;;7.83;7.05;;;;;;;19.82;100.00;99493.45;1765056;81;21005;-76
2022/08/11 17:24:37;;;;;;;8.50;6.72;;;;;;;19.78;100.00;99496.00;1765118;81;21780;-77
2022/08/11 17:27:04;;;;;;;7.17;6.58;;;;;;;19.76;100.00;99500.56;1765109;81;20929;-77